Historique des stations

Station météo de Château-Renault

Altitude de la station : 120 m







Données météorologiques pour le 18/05/2022
Date
Heure
Températures Humidité Point de rosée Vitesse
du vent
Direction Rafales Windchill Pression Pluviométrie
Cumul
Date
Heure
Températures Humidité Point de rosée Vitesse
du vent
Direction Rafales Windchill Pression Pluviométrie
Cumul
18/05/2022 19:0329.6 °C48 %17.2 °C5 km/hNO8 km/h29.4 1017 hPa-
18/05/2022 18:4929.3 °C48 %17.2 °C2 km/hNO8 km/h29.4 1017 hPa-
18/05/2022 18:3429.4 °C47 %17.2 °C2 km/hONO8 km/h29.4 1017 hPa-
18/05/2022 18:1929.3 °C48 %17.2 °C3 km/hONO11 km/h29.4 1017 hPa-
18/05/2022 18:0429.4 °C46 %16.7 °C10 km/hNNO13 km/h29.4 1017 hPa-
18/05/2022 17:5029.4 °C46 %16.7 °C5 km/hOSO11 km/h29.4 1017 hPa-
18/05/2022 17:3429.4 °C46 %16.7 °C3 km/hO6 km/h29.4 1017 hPa-
18/05/2022 17:1929.0 °C47 %16.7 °C3 km/hONO6 km/h28.9 1018 hPa-
18/05/2022 17:0429.3 °C45 %16.1 °C5 km/hNNO14 km/h29.4 1018 hPa-
18/05/2022 16:5029.7 °C44 %16.1 °C3 km/hONO11 km/h29.4 1018 hPa-
18/05/2022 16:3529.6 °C46 %16.7 °C8 km/hNNO13 km/h29.4 1018 hPa-
18/05/2022 16:1929.0 °C47 %16.7 °C13 km/hONO13 km/h28.9 1018 hPa-
18/05/2022 16:0428.3 °C47 %16.1 °C6 km/hONO18 km/h28.3 1019 hPa-
18/05/2022 15:4928.3 °C50 %16.7 °C3 km/hO18 km/h28.3 1019 hPa-
18/05/2022 15:3528.5 °C51 %17.2 °C8 km/hOSO18 km/h28.3 1019 hPa-
18/05/2022 15:2028.5 °C51 %17.2 °C5 km/hO16 km/h28.3 1019 hPa-
18/05/2022 15:0528.2 °C52 %17.2 °C5 km/hONO13 km/h28.3 1019 hPa-
18/05/2022 14:5027.8 °C54 %17.8 °C6 km/hNNO19 km/h27.8 1019 hPa-
18/05/2022 14:3627.4 °C55 %17.8 °C5 km/hO16 km/h27.2 1019 hPa-
18/05/2022 14:2027.2 °C57 %17.8 °C5 km/hONO19 km/h27.2 1020 hPa-
18/05/2022 14:0526.8 °C58 %17.8 °C6 km/hO16 km/h26.7 1020 hPa-
18/05/2022 13:5026.8 °C56 %17.2 °C5 km/hSO16 km/h26.7 1020 hPa-
18/05/2022 13:3526.3 °C58 %17.2 °C8 km/hONO16 km/h26.1 1020 hPa-
18/05/2022 13:2025.9 °C59 %17.2 °C10 km/hO13 km/h26.1 1021 hPa-
18/05/2022 13:0525.6 °C60 %17.2 °C5 km/hO13 km/h25.6 1021 hPa-
18/05/2022 12:5124.8 °C68 %18.3 °C8 km/hONO8 km/h25.0 1021 hPa-
18/05/2022 12:3624.3 °C69 %18.3 °C10 km/hO10 km/h24.4 1021 hPa-
18/05/2022 12:2023.8 °C71 %18.3 °C5 km/hO11 km/h23.9 1021 hPa-
18/05/2022 12:0523.4 °C72 %18.3 °C6 km/hOSO11 km/h23.3 1021 hPa-
18/05/2022 11:5022.8 °C76 %18.3 °C5 km/hSSO14 km/h22.8 1022 hPa-
18/05/2022 11:3622.4 °C78 %18.3 °C6 km/hOSO11 km/h22.2 1022 hPa-
18/05/2022 11:2022.3 °C78 %18.3 °C2 km/hS11 km/h22.2 1022 hPa-
18/05/2022 11:0522.1 °C78 %18.3 °C6 km/hS13 km/h22.2 1022 hPa-
18/05/2022 10:5122.0 °C76 %17.8 °C3 km/hO11 km/h22.2 1022 hPa-
18/05/2022 10:3421.6 °C76 %17.2 °C5 km/hONO11 km/h21.7 1022 hPa-
18/05/2022 10:2021.6 °C77 %17.2 °C3 km/hO6 km/h21.7 1022 hPa-
18/05/2022 10:0420.8 °C79 %17.2 °C5 km/hONO13 km/h21.1 1022 hPa-
18/05/2022 09:4920.3 °C79 %16.7 °C5 km/hONO11 km/h20.6 1022 hPa-
18/05/2022 09:3519.9 °C80 %16.1 °C2 km/hO13 km/h20.0 1022 hPa-
18/05/2022 09:2019.9 °C80 %16.1 °C5 km/hO11 km/h20.0 1022 hPa-
18/05/2022 09:0419.7 °C79 %16.1 °C3 km/hOSO6 km/h20.0 1022 hPa-
18/05/2022 08:4919.2 °C80 %15.6 °C3 km/hOSO8 km/h19.4 1022 hPa-
18/05/2022 08:3418.7 °C80 %15.0 °C3 km/hS5 km/h18.9 1022 hPa-
18/05/2022 08:1918.4 °C80 %15.0 °C-ESE3 km/h18.3 1022 hPa-
18/05/2022 08:0417.6 °C81 %14.4 °C3 km/hESE5 km/h17.8 1022 hPa-
18/05/2022 07:4917.2 °C81 %13.9 °C-ESE2 km/h17.2 1022 hPa-
18/05/2022 07:3416.3 °C82 %13.3 °C-ESE2 km/h16.1 1022 hPa-
18/05/2022 07:1915.8 °C83 %12.8 °C-ESE3 km/h16.1 1022 hPa-
18/05/2022 07:0415.0 °C88 %13.3 °C---15.0 1022 hPa-
18/05/2022 06:4914.2 °C89 %12.2 °C---14.4 1022 hPa-
18/05/2022 06:3413.9 °C88 %12.2 °C-ESE2 km/h13.9 1022 hPa-
18/05/2022 06:1914.3 °C88 %12.2 °C---14.4 1022 hPa-
18/05/2022 06:0414.5 °C88 %12.8 °C2 km/hESE2 km/h14.4 1021 hPa-
18/05/2022 05:4914.8 °C87 %12.8 °C-ESE2 km/h15.0 1021 hPa-
18/05/2022 05:3414.9 °C87 %12.8 °C3 km/hESE5 km/h15.0 1021 hPa-
18/05/2022 05:1815.0 °C87 %12.8 °C3 km/hESE5 km/h15.0 1021 hPa-
18/05/2022 05:0315.0 °C87 %12.8 °C2 km/hESE3 km/h15.0 1021 hPa-
18/05/2022 04:4814.8 °C87 %12.8 °C2 km/hESE2 km/h15.0 1021 hPa-
18/05/2022 04:3314.9 °C86 %12.8 °C---15.0 1021 hPa-
18/05/2022 04:1815.2 °C85 %12.8 °C---15.0 1021 hPa-
18/05/2022 04:0315.3 °C86 %13.3 °C-ESE2 km/h15.6 1021 hPa-
18/05/2022 03:4815.4 °C85 %12.8 °C---15.6 1021 hPa-
18/05/2022 03:3315.8 °C84 %13.3 °C-ESE2 km/h16.1 1021 hPa-
18/05/2022 03:1816.1 °C83 %13.3 °C-ESE2 km/h16.1 1021 hPa-
18/05/2022 03:0316.5 °C83 %13.9 °C-ESE2 km/h16.7 1021 hPa-
18/05/2022 02:4816.8 °C82 %13.9 °C-ESE2 km/h16.7 1021 hPa-
18/05/2022 02:3317.0 °C81 %13.9 °C-ESE2 km/h17.2 1021 hPa-
18/05/2022 02:1817.3 °C80 %13.9 °C-ESE3 km/h17.2 1021 hPa-
18/05/2022 02:0317.7 °C79 %13.9 °C2 km/hESE3 km/h17.8 1021 hPa-
18/05/2022 01:4818.0 °C79 %14.4 °C2 km/hESE3 km/h17.8 1021 hPa-
18/05/2022 01:3318.2 °C78 %14.4 °C-ESE5 km/h18.3 1021 hPa-
18/05/2022 01:1818.4 °C77 %14.4 °C2 km/hESE3 km/h18.3 1021 hPa-
18/05/2022 01:0418.7 °C77 %14.4 °C2 km/hESE5 km/h18.9 1020 hPa-
18/05/2022 00:4919.1 °C76 %15.0 °C2 km/hESE5 km/h18.9 1020 hPa-
18/05/2022 00:3419.3 °C75 %15.0 °C3 km/hSE10 km/h19.4 1020 hPa-
18/05/2022 00:1919.4 °C75 %15.0 °C2 km/hE6 km/h19.4 1020 hPa-
18/05/2022 00:0519.7 °C74 %15.0 °C-ESE5 km/h20.0 1020 hPa-


Minima :

Température : 13.9 °C
Humidité : 44 %
Point de rosée : 12.2 °C
Vent moyen : 2 km/h
Windchill : 13.9
Pression atm. : 1017 hPa
Maxima :

Température : 29.7 °C
Humidité : 89 %
Point de rosée : 18.3 °C
Vent moyen : 13 km/h
Windchill : 29.4
Pression atm. : 1022 hPa
Rafales max : 19 km/h
Cumul de pluie sur 24H : 0 mm

Chateau-RENAULT est une commune du département Indre-et-Loire (37).
La station météorologique du réseau de l'association la plus proche de Château-Renault est celle de Véretz



Icône Facebook Association Météo Centre Icône Twitter Association Météo Centre Icône Chaîne Youtube Association Météo Centre Icône contact Association Météo Centre Icône Insta Association Météo Centre